Time;durP1;ratioP1;P1;durP2;ratioP2;P2;SDS_P1;SDS_P2;PMS_P1;PMS_P2;Temp;Humidity;BMP_temperature;BMP_pressure;BME280_temperature;BME280_humidity;BME280_pressure;Samples;Min_cycle;Max_cycle;Signal;HPM_P1;HPM_P2
2020/12/17 00:01:13;;;;;;;1.42;0.70;;;12.60;92.10;;;;;;4099501;28;20061;-88
2020/12/17 00:03:15;;;;;;;0.30;0.30;;;12.60;92.20;;;;;;4100040;28;20054;-88
2020/12/17 00:05:16;;;;;;;0.30;0.20;;;12.70;92.20;;;;;;4102431;28;20055;-88
2020/12/17 00:07:17;;;;;;;0.20;0.20;;;12.60;92.20;;;;;;4112260;28;20125;-88
2020/12/17 00:09:19;;;;;;;0.75;0.40;;;12.60;92.30;;;;;;4096676;28;20063;-87
2020/12/17 00:11:20;;;;;;;0.40;0.40;;;12.60;92.30;;;;;;4116190;28;20055;-88
2020/12/17 00:13:22;;;;;;;0.68;0.22;;;12.50;92.40;;;;;;4115693;28;20063;-88
2020/12/17 00:15:23;;;;;;;0.20;0.20;;;12.50;92.50;;;;;;4099652;28;20098;-88
2020/12/17 00:17:24;;;;;;;0.38;0.30;;;12.50;92.50;;;;;;4099989;28;20146;-88
2020/12/17 00:19:26;;;;;;;3.28;0.30;;;12.50;92.50;;;;;;4112691;28;20130;-88
2020/12/17 00:21:28;;;;;;;0.25;0.20;;;12.50;92.50;;;;;;4102486;28;20166;-88
2020/12/17 00:23:29;;;;;;;0.20;0.20;;;12.50;92.50;;;;;;4099052;28;20487;-88
2020/12/17 00:25:31;;;;;;;0.93;0.82;;;12.60;92.50;;;;;;4099405;28;20141;-88
2020/12/17 00:27:32;;;;;;;2.55;0.50;;;12.50;92.60;;;;;;4111552;28;20048;-88
2020/12/17 00:29:34;;;;;;;0.60;0.25;;;12.60;92.50;;;;;;4099272;29;20058;-88
2020/12/17 00:31:35;;;;;;;0.85;0.30;;;12.50;92.60;;;;;;4114596;28;20047;-87
2020/12/17 00:33:36;;;;;;;0.20;0.20;;;12.50;92.80;;;;;;4107318;28;20055;-88
2020/12/17 00:35:38;;;;;;;3.78;0.57;;;12.40;92.80;;;;;;4084156;28;20575;-88
2020/12/17 00:37:39;;;;;;;0.13;0.13;;;12.50;92.80;;;;;;4099468;28;20055;-87
2020/12/17 00:39:41;;;;;;;0.40;0.10;;;12.40;92.80;;;;;;4102801;28;20046;-87
2020/12/17 00:41:43;;;;;;;1.00;0.40;;;12.50;92.80;;;;;;4099493;28;20059;-89
2020/12/17 00:43:44;;;;;;;0.40;0.20;;;12.50;92.90;;;;;;4100000;28;20174;-89
2020/12/17 00:45:45;;;;;;;0.25;0.20;;;12.50;92.80;;;;;;4110656;28;20082;-90
2020/12/17 00:47:47;;;;;;;0.15;0.15;;;12.50;92.80;;;;;;4085295;28;20135;-89
2020/12/17 00:49:48;;;;;;;0.20;0.20;;;12.40;92.90;;;;;;4089739;28;20077;-88
2020/12/17 00:51:49;;;;;;;0.70;0.20;;;12.40;92.90;;;;;;4093253;28;20047;-88
2020/12/17 00:53:51;;;;;;;0.50;0.38;;;12.40;92.80;;;;;;4098915;28;20059;-88
2020/12/17 00:55:52;;;;;;;0.35;0.30;;;12.50;92.80;;;;;;4111156;28;20494;-88
2020/12/17 00:57:55;;;;;;;2.13;0.25;;;12.40;92.80;;;;;;4114862;28;20051;-88
2020/12/17 00:59:56;;;;;;;0.75;0.60;;;12.40;92.80;;;;;;4099329;28;20063;-88
2020/12/17 01:01:58;;;;;;;0.20;0.20;;;12.40;92.80;;;;;;4115047;28;20058;-88
2020/12/17 01:03:59;;;;;;;1.08;0.20;;;12.40;92.90;;;;;;4106006;28;20059;-87
2020/12/17 01:06:01;;;;;;;0.10;0.10;;;12.40;92.90;;;;;;4084969;28;20403;-88
2020/12/17 01:08:02;;;;;;;1.65;0.20;;;12.40;92.90;;;;;;4087920;28;20067;-88
2020/12/17 01:10:04;;;;;;;0.85;0.20;;;12.40;92.90;;;;;;4107123;28;20426;-88
2020/12/17 01:12:06;;;;;;;0.20;0.20;;;12.40;92.90;;;;;;4099799;28;20058;-88
2020/12/17 01:14:07;;;;;;;0.50;0.45;;;12.40;92.80;;;;;;4115614;28;20113;-87
2020/12/17 01:16:09;;;;;;;0.32;0.30;;;12.40;92.80;;;;;;4098789;28;20055;-87
2020/12/17 01:18:10;;;;;;;1.73;1.23;;;12.50;92.80;;;;;;4095814;28;20134;-88
2020/12/17 01:20:12;;;;;;;0.30;0.20;;;12.40;92.70;;;;;;4083311;29;20075;-88
2020/12/17 01:22:13;;;;;;;1.50;1.05;;;12.40;92.80;;;;;;4114400;28;20047;-88
2020/12/17 01:24:14;;;;;;;0.13;0.13;;;12.40;92.80;;;;;;4103921;28;20137;-88
2020/12/17 01:26:15;;;;;;;0.63;0.50;;;12.40;92.70;;;;;;4099347;28;20138;-87
2020/12/17 01:28:17;;;;;;;0.10;0.10;;;12.50;92.60;;;;;;4098660;28;20107;-88
2020/12/17 01:30:18;;;;;;;0.25;0.15;;;12.50;92.60;;;;;;4098377;29;20047;-89
2020/12/17 01:32:20;;;;;;;0.57;0.35;;;12.50;92.60;;;;;;4131054;28;20130;-88
2020/12/17 01:34:21;;;;;;;0.20;0.20;;;12.40;92.60;;;;;;4098417;28;20146;-88
2020/12/17 01:36:22;;;;;;;1.17;0.50;;;12.40;92.50;;;;;;4098566;28;20057;-88
2020/12/17 01:38:23;;;;;;;0.20;0.20;;;12.50;92.60;;;;;;4113357;28;20066;-88
2020/12/17 01:40:25;;;;;;;3.35;0.35;;;12.50;92.50;;;;;;4092266;28;20084;-89
2020/12/17 01:42:26;;;;;;;9.23;0.55;;;12.40;92.70;;;;;;4105409;28;20039;-88
2020/12/17 01:44:27;;;;;;;0.10;0.10;;;12.40;92.50;;;;;;4115155;28;20141;-88
2020/12/17 01:46:29;;;;;;;0.30;0.22;;;12.40;92.50;;;;;;4114132;28;20050;-88
2020/12/17 01:48:31;;;;;;;0.28;0.28;;;12.40;92.60;;;;;;4098515;28;20599;-89
2020/12/17 01:50:32;;;;;;;0.28;0.20;;;12.40;92.50;;;;;;4099084;28;20055;-88
2020/12/17 01:52:34;;;;;;;0.68;0.20;;;12.40;92.50;;;;;;4096384;28;20480;-88
2020/12/17 01:54:35;;;;;;;0.73;0.57;;;12.40;92.60;;;;;;4098540;28;20079;-88
2020/12/17 01:56:38;;;;;;;0.52;0.52;;;12.40;92.60;;;;;;4098658;28;20134;-88
2020/12/17 01:58:42;;;;;;;1.23;0.50;;;12.30;92.50;;;;;;4098964;28;20129;-88
2020/12/17 02:00:43;;;;;;;0.30;0.20;;;12.30;92.50;;;;;;4097508;28;20146;-89
2020/12/17 02:02:45;;;;;;;0.73;0.30;;;12.30;92.60;;;;;;4084048;28;20512;-86
2020/12/17 02:04:46;;;;;;;0.93;0.38;;;12.30;92.60;;;;;;4098864;28;20051;-88
2020/12/17 02:06:48;;;;;;;0.40;0.40;;;12.30;92.70;;;;;;4128468;28;20056;-88
2020/12/17 02:08:50;;;;;;;0.25;0.25;;;12.30;92.70;;;;;;4100198;28;20051;-88
2020/12/17 02:10:52;;;;;;;0.68;0.47;;;12.20;92.70;;;;;;4130602;28;20093;-87
2020/12/17 02:12:54;;;;;;;1.30;1.20;;;12.30;92.60;;;;;;4111858;28;20047;-88
2020/12/17 02:14:55;;;;;;;0.57;0.40;;;12.30;92.70;;;;;;4117377;28;20050;-88
2020/12/17 02:16:56;;;;;;;0.20;0.20;;;12.30;92.70;;;;;;4098961;28;20052;-89
2020/12/17 02:18:58;;;;;;;0.45;0.32;;;12.20;92.60;;;;;;4092733;28;20055;-87
2020/12/17 02:20:59;;;;;;;0.25;0.20;;;12.20;92.70;;;;;;4131942;28;20118;-88
2020/12/17 02:23:01;;;;;;;0.17;0.10;;;12.10;92.80;;;;;;4114000;28;20046;-88
2020/12/17 02:25:10;;;;;;;0.38;0.32;;;12.10;92.90;;;;;;4090079;28;20067;-88
2020/12/17 02:27:11;;;;;;;0.68;0.55;;;12.10;93.00;;;;;;4098053;28;20054;-88
2020/12/17 02:29:13;;;;;;;1.52;0.35;;;12.10;92.90;;;;;;4102597;28;20059;-88
2020/12/17 02:31:14;;;;;;;0.20;0.20;;;12.00;93.00;;;;;;4114030;28;20057;-88
2020/12/17 02:33:15;;;;;;;0.20;0.10;;;12.00;93.10;;;;;;4101145;28;20070;-87
2020/12/17 02:35:16;;;;;;;0.20;0.20;;;12.00;93.10;;;;;;4104146;28;20071;-88
2020/12/17 02:37:30;;;;;;;0.63;0.32;;;12.00;93.20;;;;;;4117844;28;20063;-88
2020/12/17 02:39:33;;;;;;;0.20;0.10;;;11.90;93.20;;;;;;4100490;28;20059;-88
2020/12/17 02:41:35;;;;;;;0.20;0.20;;;11.90;93.40;;;;;;4102206;28;20059;-88
2020/12/17 02:43:37;;;;;;;0.52;0.40;;;11.80;93.40;;;;;;4105146;28;20066;-87
2020/12/17 02:45:51;;;;;;;0.22;0.20;;;11.80;93.40;;;;;;4093686;28;20130;-88
2020/12/17 02:47:52;;;;;;;0.73;0.28;;;11.80;93.40;;;;;;4102202;28;20053;-88
2020/12/17 02:49:54;;;;;;;1.40;0.63;;;11.80;93.40;;;;;;4116930;28;20050;-88
2020/12/17 02:51:55;;;;;;;3.28;0.57;;;11.80;93.50;;;;;;4096551;28;20440;-89
2020/12/17 02:53:56;;;;;;;1.20;0.20;;;11.80;93.50;;;;;;4102190;28;20526;-87
2020/12/17 02:55:57;;;;;;;0.17;0.13;;;11.70;93.60;;;;;;4135076;28;20054;-88
2020/12/17 02:57:59;;;;;;;0.38;0.32;;;11.70;93.50;;;;;;4124246;28;20059;-88
2020/12/17 03:00:01;;;;;;;0.55;0.40;;;11.70;93.50;;;;;;4121925;28;20047;-88
2020/12/17 03:02:02;;;;;;;0.40;0.20;;;11.70;93.50;;;;;;4095191;29;20106;-88
2020/12/17 03:04:03;;;;;;;3.13;0.28;;;11.70;93.40;;;;;;4112804;28;20117;-88
2020/12/17 03:06:05;;;;;;;0.13;0.13;;;11.60;93.50;;;;;;4113241;28;20051;-88
2020/12/17 03:08:06;;;;;;;0.30;0.20;;;11.60;93.60;;;;;;4112965;28;20051;-88
2020/12/17 03:10:12;;;;;;;0.50;0.28;;;11.50;93.80;;;;;;4112391;28;20055;-88
2020/12/17 03:12:13;;;;;;;0.65;0.47;;;11.50;93.90;;;;;;4105805;28;20146;-88
2020/12/17 03:14:15;;;;;;;0.30;0.30;;;11.50;93.80;;;;;;4117312;28;20068;-88
2020/12/17 03:16:16;;;;;;;0.60;0.28;;;11.50;93.80;;;;;;4092533;28;20059;-88
2020/12/17 03:18:17;;;;;;;6.00;0.60;;;11.50;93.80;;;;;;4088524;28;20051;-88
2020/12/17 03:20:19;;;;;;;1.20;0.57;;;11.50;93.80;;;;;;4098658;28;20065;-88
2020/12/17 03:22:20;;;;;;;0.20;0.20;;;11.40;93.90;;;;;;4099519;28;20512;-88
2020/12/17 03:24:21;;;;;;;0.60;0.60;;;11.40;93.90;;;;;;4100299;28;20047;-89
2020/12/17 03:26:22;;;;;;;0.47;0.20;;;11.40;94.10;;;;;;4101222;28;20419;-88
2020/12/17 03:28:24;;;;;;;0.73;0.35;;;11.30;94.10;;;;;;4110168;28;20055;-88
2020/12/17 03:30:25;;;;;;;0.57;0.30;;;11.30;94.10;;;;;;4090985;28;20055;-88
2020/12/17 03:32:26;;;;;;;0.68;0.20;;;11.30;94.10;;;;;;4100850;28;20047;-88
2020/12/17 03:34:29;;;;;;;0.82;0.65;;;11.20;94.20;;;;;;4096465;28;20055;-88
2020/12/17 03:36:30;;;;;;;2.28;0.50;;;11.20;94.20;;;;;;4116949;28;20059;-88
2020/12/17 03:38:32;;;;;;;1.10;1.00;;;11.20;94.40;;;;;;4100559;28;20139;-88
2020/12/17 03:40:33;;;;;;;0.30;0.20;;;11.00;94.50;;;;;;4091852;28;20533;-88
2020/12/17 03:42:34;;;;;;;0.45;0.30;;;11.00;94.40;;;;;;4108226;28;20141;-88
2020/12/17 03:44:35;;;;;;;0.17;0.17;;;10.90;94.30;;;;;;4100433;28;20499;-88
2020/12/17 03:46:37;;;;;;;0.82;0.63;;;10.90;94.40;;;;;;4092694;28;20488;-88
2020/12/17 03:48:38;;;;;;;1.40;0.68;;;10.90;94.50;;;;;;4108156;28;20050;-88
2020/12/17 03:50:39;;;;;;;0.45;0.30;;;10.80;94.30;;;;;;4099945;28;20067;-88
2020/12/17 03:52:41;;;;;;;0.30;0.13;;;10.90;94.50;;;;;;4116230;28;20058;-88
2020/12/17 03:54:42;;;;;;;1.75;0.65;;;10.80;94.40;;;;;;4100188;28;20087;-88
2020/12/17 03:56:43;;;;;;;0.50;0.45;;;10.80;94.60;;;;;;4085045;29;20062;-88
2020/12/17 03:58:44;;;;;;;0.10;0.10;;;10.80;94.80;;;;;;4100461;28;20058;-88
2020/12/17 04:00:46;;;;;;;0.30;0.30;;;10.70;94.80;;;;;;4108879;28;20137;-88
2020/12/17 04:02:48;;;;;;;0.55;0.30;;;10.70;94.80;;;;;;4101002;28;20055;-88
2020/12/17 04:04:49;;;;;;;1.75;1.55;;;10.70;95.00;;;;;;4094179;28;20106;-88
2020/12/17 04:06:51;;;;;;;0.47;0.47;;;10.70;94.90;;;;;;4111705;28;20048;-88
2020/12/17 04:08:52;;;;;;;0.85;0.60;;;10.70;94.80;;;;;;4100632;28;20055;-88
2020/12/17 04:10:53;;;;;;;1.38;0.40;;;10.70;94.70;;;;;;4100332;28;20525;-87
2020/12/17 04:12:55;;;;;;;0.40;0.30;;;10.60;95.20;;;;;;4087832;28;20143;-88
2020/12/17 04:14:56;;;;;;;1.33;0.40;;;10.60;95.30;;;;;;4099770;28;20761;-88
2020/12/17 04:16:57;;;;;;;0.35;0.35;;;10.60;95.40;;;;;;4094759;29;20077;-88
2020/12/17 04:18:58;;;;;;;0.68;0.40;;;10.60;95.50;;;;;;4094679;28;20058;-87
2020/12/17 04:21:00;;;;;;;0.25;0.25;;;10.60;95.50;;;;;;4097547;28;20047;-88
2020/12/17 04:23:05;;;;;;;;;;;10.60;95.30;;;;;;4101336;28;20431;-88
2020/12/17 04:25:07;;;;;;;5.53;1.05;;;10.60;95.20;;;;;;4109251;28;19929;-88
2020/12/17 04:27:09;;;;;;;5.93;0.75;;;10.60;95.50;;;;;;4099430;28;20062;-88
2020/12/17 04:29:10;;;;;;;1.05;0.95;;;10.50;95.70;;;;;;4112153;28;20085;-88
2020/12/17 04:31:11;;;;;;;0.50;0.45;;;10.50;95.60;;;;;;4099288;28;20063;-88
2020/12/17 04:33:14;;;;;;;0.40;0.40;;;10.50;95.60;;;;;;4117766;28;20130;-88
2020/12/17 04:35:16;;;;;;;0.93;0.88;;;10.40;95.80;;;;;;4112948;28;20073;-87
2020/12/17 04:37:17;;;;;;;0.65;0.60;;;10.40;95.90;;;;;;4093246;28;20433;-88
2020/12/17 04:39:18;;;;;;;1.27;0.30;;;10.40;95.80;;;;;;4104970;28;20121;-88
2020/12/17 04:41:20;;;;;;;0.82;0.60;;;10.40;95.80;;;;;;4113312;28;20057;-87
2020/12/17 04:43:21;;;;;;;1.48;0.50;;;10.30;96.00;;;;;;4103251;28;20078;-88
2020/12/17 04:45:23;;;;;;;0.63;0.47;;;10.30;95.80;;;;;;4112607;28;20482;-87
2020/12/17 04:47:24;;;;;;;1.75;0.40;;;10.40;95.90;;;;;;4083781;29;20069;-88
2020/12/17 04:49:31;;;;;;;0.73;0.50;;;10.30;95.90;;;;;;4122980;28;20511;-88
2020/12/17 04:51:32;;;;;;;0.40;0.40;;;10.30;95.90;;;;;;4099222;28;20043;-88
2020/12/17 04:53:35;;;;;;;0.75;0.38;;;10.30;95.90;;;;;;4083865;29;20047;-88
2020/12/17 04:55:36;;;;;;;0.60;0.50;;;10.30;96.00;;;;;;4117403;28;20057;-88
2020/12/17 04:57:46;;;;;;;1.50;1.33;;;10.30;95.60;;;;;;4122879;28;20054;-88
2020/12/17 04:59:49;;;;;;;0.35;0.22;;;10.40;95.70;;;;;;4115243;28;20078;-87
2020/12/17 05:01:51;;;;;;;0.75;0.60;;;10.40;95.60;;;;;;4113463;28;20051;-88
2020/12/17 05:03:52;;;;;;;0.50;0.20;;;10.40;95.60;;;;;;4092211;28;20052;-88
2020/12/17 05:05:53;;;;;;;2.00;0.77;;;10.40;95.70;;;;;;4101533;28;20121;-88
2020/12/17 05:07:55;;;;;;;0.88;0.40;;;10.50;95.70;;;;;;4104813;28;20055;-88
2020/12/17 05:09:56;;;;;;;1.33;0.73;;;10.40;95.80;;;;;;4094037;28;20054;-88
2020/12/17 05:11:57;;;;;;;1.63;0.70;;;10.40;95.70;;;;;;4131037;28;20453;-88
2020/12/17 05:13:59;;;;;;;0.70;0.55;;;10.40;95.60;;;;;;4098904;28;20066;-88
2020/12/17 05:16:00;;;;;;;1.00;0.43;;;10.40;95.80;;;;;;4123694;28;20053;-89
2020/12/17 05:18:01;;;;;;;1.88;0.70;;;10.40;95.80;;;;;;4114765;28;20050;-88
2020/12/17 05:20:05;;;;;;;0.30;0.22;;;10.50;95.70;;;;;;4115128;28;20047;-88
2020/12/17 05:22:13;;;;;;;1.13;0.75;;;10.40;96.10;;;;;;4095286;28;20052;-88
2020/12/17 05:24:14;;;;;;;0.43;0.25;;;10.30;96.00;;;;;;4104399;28;20054;-87
2020/12/17 05:26:16;;;;;;;1.45;0.70;;;10.10;95.80;;;;;;4099225;28;20059;-87
2020/12/17 05:28:17;;;;;;;0.52;0.52;;;9.90;95.90;;;;;;4127110;28;20542;-88
2020/12/17 05:30:18;;;;;;;0.52;0.52;;;9.70;96.20;;;;;;4098532;28;20058;-87
2020/12/17 05:32:20;;;;;;;2.92;0.77;;;9.60;96.30;;;;;;4099348;28;20051;-87
2020/12/17 05:34:23;;;;;;;1.25;0.85;;;9.60;96.50;;;;;;4092317;29;20119;-88
2020/12/17 05:36:27;;;;;;;0.80;0.63;;;9.60;96.40;;;;;;4089916;28;20058;-87
2020/12/17 05:38:28;;;;;;;1.42;0.90;;;9.60;96.20;;;;;;4084723;28;20060;-88
2020/12/17 05:40:39;;;;;;;5.40;1.73;;;9.50;96.30;;;;;;4087525;29;20432;-88
2020/12/17 05:42:41;;;;;;;1.08;0.70;;;9.50;96.60;;;;;;4107947;28;20427;-88
2020/12/17 05:44:42;;;;;;;0.52;0.52;;;9.50;96.50;;;;;;4100399;28;20081;-88
2020/12/17 05:46:45;;;;;;;0.50;0.50;;;9.40;96.70;;;;;;4115338;28;20163;-87
2020/12/17 05:48:48;;;;;;;1.55;0.50;;;9.40;96.50;;;;;;4098617;28;20057;-88
2020/12/17 05:50:54;;;;;;;1.83;1.00;;;9.40;96.40;;;;;;4099032;28;20067;-88
2020/12/17 05:52:55;;;;;;;;;;;9.50;96.20;;;;;;4115151;28;20045;-88
2020/12/17 05:54:56;;;;;;;8.25;0.93;;;9.50;96.30;;;;;;4121090;28;20397;-89
2020/12/17 05:57:08;;;;;;;0.60;0.40;;;9.40;96.40;;;;;;4143854;28;20057;-87
2020/12/17 05:59:09;;;;;;;1.33;0.88;;;9.40;96.40;;;;;;4099321;28;20063;-88
2020/12/17 06:01:16;;;;;;;3.60;0.40;;;9.30;96.60;;;;;;4114048;28;20082;-87
2020/12/17 06:03:25;;;;;;;0.77;0.50;;;9.20;97.10;;;;;;4099429;28;20078;-88
2020/12/17 06:05:27;;;;;;;0.88;0.82;;;9.10;97.10;;;;;;4102498;28;20059;-88
2020/12/17 06:07:50;;;;;;;0.43;0.30;;;9.10;97.10;;;;;;4104883;28;20055;-88
2020/12/17 06:10:05;;;;;;;0.43;0.43;;;9.10;97.40;;;;;;4111614;28;20046;-88
2020/12/17 06:12:06;;;;;;;0.80;0.80;;;9.00;97.30;;;;;;4098606;28;20134;-87
2020/12/17 06:14:07;;;;;;;1.10;0.52;;;9.00;97.40;;;;;;4098959;28;20055;-88
2020/12/17 06:16:10;;;;;;;0.90;0.50;;;9.10;97.00;;;;;;4131003;28;20606;-88
2020/12/17 06:18:12;;;;;;;1.98;0.75;;;9.00;97.20;;;;;;4107590;28;20146;-87
2020/12/17 06:20:13;;;;;;;1.33;1.23;;;9.00;97.50;;;;;;4117506;28;20137;-88
2020/12/17 06:22:14;;;;;;;2.85;0.98;;;8.80;97.50;;;;;;4106631;28;20059;-89
2020/12/17 06:24:19;;;;;;;1.15;1.05;;;8.80;97.50;;;;;;4089217;29;20059;-88
2020/12/17 06:26:20;;;;;;;2.20;0.88;;;8.70;97.40;;;;;;4099534;28;20500;-88
2020/12/17 06:28:37;;;;;;;1.83;1.23;;;8.70;97.60;;;;;;4109233;28;20051;-90
2020/12/17 06:30:38;;;;;;;0.65;0.65;;;8.60;97.40;;;;;;4100882;28;20051;-88
2020/12/17 06:32:39;;;;;;;2.53;0.32;;;8.60;97.50;;;;;;4086365;29;20134;-87
2020/12/17 06:34:44;;;;;;;0.52;0.52;;;8.60;97.70;;;;;;4116485;28;20057;-86
2020/12/17 06:36:49;;;;;;;0.77;0.70;;;8.60;97.20;;;;;;4099845;28;20055;-88
2020/12/17 06:38:51;;;;;;;;;;;8.60;97.00;;;;;;4104448;28;20067;-88
2020/12/17 06:40:53;;;;;;;1.30;0.98;;;8.60;97.00;;;;;;4117310;28;19922;-88
2020/12/17 06:42:54;;;;;;;1.13;1.02;;;8.60;97.00;;;;;;4100822;28;20046;-88
2020/12/17 06:44:56;;;;;;;6.45;2.65;;;8.60;96.90;;;;;;4116925;28;20502;-88
2020/12/17 06:46:58;;;;;;;0.57;0.57;;;8.50;97.40;;;;;;4115717;28;20126;-87
2020/12/17 06:48:59;;;;;;;1.38;0.80;;;8.40;97.40;;;;;;4129868;28;20043;-84
2020/12/17 06:51:01;;;;;;;1.70;0.77;;;8.40;97.50;;;;;;4131552;28;20054;-85
2020/12/17 06:53:04;;;;;;;3.13;1.10;;;8.40;97.60;;;;;;4091612;28;20133;-85
2020/12/17 06:55:17;;;;;;;2.53;1.88;;;8.50;97.20;;;;;;4102963;28;20058;-83
2020/12/17 06:57:19;;;;;;;1.98;1.17;;;8.40;97.40;;;;;;4098723;28;20423;-84
2020/12/17 06:59:20;;;;;;;3.67;1.65;;;8.40;97.40;;;;;;4098395;29;20069;-82
2020/12/17 07:01:22;;;;;;;2.80;1.13;;;8.30;97.50;;;;;;4145089;28;20130;-83
2020/12/17 07:03:58;;;;;;;2.10;1.00;;;8.30;97.50;;;;;;4129816;28;20050;-82
2020/12/17 07:06:22;;;;;;;1.27;0.98;;;8.30;97.50;;;;;;4068581;29;20058;-83
2020/12/17 07:08:36;;;;;;;1.95;0.93;;;8.30;97.70;;;;;;4054883;29;20052;-83
2020/12/17 07:10:38;;;;;;;1.60;1.48;;;8.20;97.90;;;;;;4083094;29;20059;-83
2020/12/17 07:12:39;;;;;;;3.35;1.05;;;8.10;97.90;;;;;;4083209;29;20166;-83
2020/12/17 07:14:41;;;;;;;1.63;1.13;;;8.00;98.00;;;;;;4067955;29;20129;-83
2020/12/17 07:16:50;;;;;;;1.70;1.10;;;8.00;98.00;;;;;;4068417;29;20056;-83
2020/12/17 07:18:53;;;;;;;2.53;1.38;;;8.00;97.90;;;;;;4079124;29;20260;-83
2020/12/17 07:21:05;;;;;;;3.83;1.17;;;8.00;97.80;;;;;;4070993;29;20487;-82
2020/12/17 07:23:07;;;;;;;1.35;1.23;;;7.90;98.10;;;;;;4048795;29;20052;-83
2020/12/17 07:25:08;;;;;;;2.58;0.95;;;7.90;98.20;;;;;;4047267;29;20502;-83
2020/12/17 07:27:10;;;;;;;2.17;1.13;;;7.90;98.20;;;;;;4056826;29;20064;-83
2020/12/17 07:29:13;;;;;;;0.52;0.47;;;7.80;98.40;;;;;;4052370;29;20062;-84
2020/12/17 07:31:25;;;;;;;1.40;1.27;;;7.80;98.20;;;;;;4066824;29;20058;-87
2020/12/17 07:33:38;;;;;;;1.13;1.00;;;7.80;98.50;;;;;;4076225;29;20048;-86
2020/12/17 07:35:42;;;;;;;3.42;1.90;;;7.90;98.40;;;;;;4083430;29;20055;-86
2020/12/17 07:37:51;;;;;;;2.15;1.95;;;7.90;98.60;;;;;;4061198;29;20060;-89
2020/12/17 07:39:53;;;;;;;1.50;1.40;;;7.80;98.60;;;;;;4081227;29;20050;-88
2020/12/17 07:42:04;;;;;;;2.88;2.08;;;7.90;98.50;;;;;;4075920;28;20833;-90
2020/12/17 07:44:05;;;;;;;2.45;0.98;;;7.90;98.40;;;;;;4127146;28;20499;-87
2020/12/17 07:46:08;;;;;;;2.17;1.23;;;7.90;98.70;;;;;;4112613;28;20066;-88
2020/12/17 07:48:34;;;;;;;1.50;0.93;;;7.90;98.60;;;;;;4116025;28;20073;-88
2020/12/17 07:50:38;;;;;;;1.02;0.93;;;7.90;98.70;;;;;;4132101;28;20570;-93
2020/12/17 07:52:41;;;;;;;1.92;0.93;;;8.00;98.50;;;;;;4131412;28;20077;-90
2020/12/17 07:54:45;;;;;;;1.27;1.00;;;8.00;98.70;;;;;;4115979;28;20454;-88
2020/12/17 07:56:47;;;;;;;1.35;1.25;;;8.00;98.50;;;;;;4116241;28;20137;-90
2020/12/17 07:58:51;;;;;;;2.90;1.00;;;8.00;98.60;;;;;;4098567;28;20126;-90
2020/12/17 08:00:54;;;;;;;1.60;1.50;;;8.00;98.50;;;;;;4115628;28;20042;-89
2020/12/17 08:02:55;;;;;;;1.42;1.17;;;8.00;98.70;;;;;;4098602;28;21429;-88
2020/12/17 08:04:56;;;;;;;1.80;1.15;;;8.00;98.50;;;;;;4122248;28;20415;-91
2020/12/17 08:07:06;;;;;;;2.35;1.42;;;8.00;98.70;;;;;;4111963;28;20420;-92
2020/12/17 08:09:07;;;;;;;2.35;0.95;;;8.00;98.40;;;;;;4120649;28;20050;-91
2020/12/17 08:11:19;;;;;;;1.65;1.25;;;8.00;98.60;;;;;;4115898;28;20062;-93
2020/12/17 08:13:20;;;;;;;3.17;2.35;;;8.00;98.40;;;;;;4135037;28;20113;-91
2020/12/17 08:15:22;;;;;;;3.05;1.50;;;8.00;98.50;;;;;;4119294;28;20077;-90
2020/12/17 08:17:23;;;;;;;2.70;1.20;;;8.00;98.30;;;;;;4105609;28;20055;-91
2020/12/17 08:19:24;;;;;;;5.95;2.55;;;8.10;98.30;;;;;;4137025;28;20106;-90
2020/12/17 08:21:26;;;;;;;1.85;1.23;;;8.10;98.30;;;;;;4125622;28;20058;-90
2020/12/17 08:23:28;;;;;;;2.55;0.98;;;8.20;97.90;;;;;;4135771;28;20090;-88
2020/12/17 08:25:30;;;;;;;1.52;1.42;;;8.20;97.90;;;;;;4123215;28;20047;-90
2020/12/17 08:27:31;;;;;;;2.67;1.15;;;8.30;97.50;;;;;;4123356;28;20130;-90
2020/12/17 08:29:32;;;;;;;2.97;1.65;;;8.40;97.60;;;;;;4100345;28;20062;-91
2020/12/17 08:31:33;;;;;;;2.35;1.92;;;8.40;97.80;;;;;;4123716;28;20455;-91
2020/12/17 08:33:45;;;;;;;1.52;1.27;;;8.40;97.70;;;;;;4091844;28;20058;-91
2020/12/17 08:35:46;;;;;;;2.72;2.00;;;8.40;97.50;;;;;;4103429;28;20142;-91
2020/12/17 08:37:55;;;;;;;3.13;1.23;;;8.40;97.40;;;;;;4131819;28;20502;-92
2020/12/17 08:40:01;;;;;;;1.80;1.35;;;8.40;97.40;;;;;;4097448;28;20069;-91
2020/12/17 08:42:03;;;;;;;;;;;8.50;97.60;;;;;;4103900;28;20094;-90
2020/12/17 08:44:05;;;;;;;2.80;1.83;;;8.50;97.40;;;;;;4115499;28;19926;-91
2020/12/17 08:46:07;;;;;;;0.85;0.70;;;8.50;97.40;;;;;;4111363;28;20434;-91
2020/12/17 08:48:13;;;;;;;0.90;0.90;;;8.60;97.30;;;;;;4103802;28;20053;-90
2020/12/17 08:50:15;;;;;;;3.17;1.73;;;8.60;97.30;;;;;;4100413;28;20047;-91
2020/12/17 08:52:36;;;;;;;1.95;1.73;;;8.70;97.00;;;;;;4098890;28;20139;-91
2020/12/17 08:54:37;;;;;;;4.78;2.20;;;8.70;97.10;;;;;;4131177;28;20129;-90
2020/12/17 08:56:42;;;;;;;2.38;1.88;;;8.80;96.90;;;;;;4116749;28;20435;-91
2020/12/17 08:58:50;;;;;;;5.68;2.75;;;8.80;96.90;;;;;;4101428;28;20134;-92
2020/12/17 09:00:51;;;;;;;4.80;2.38;;;8.80;97.00;;;;;;4109022;28;20129;-91
2020/12/17 09:02:58;;;;;;;4.45;3.42;;;8.90;96.80;;;;;;4131311;28;20137;-89
2020/12/17 09:05:00;;;;;;;2.50;1.15;;;8.90;96.90;;;;;;4099953;28;20546;-88
2020/12/17 09:07:01;;;;;;;2.67;1.50;;;8.90;96.80;;;;;;4093470;28;20047;-89
2020/12/17 09:09:24;;;;;;;2.35;1.95;;;8.90;96.80;;;;;;4132161;28;20062;-89
2020/12/17 09:11:37;;;;;;;3.85;2.83;;;9.00;96.70;;;;;;4116927;28;20136;-88
2020/12/17 09:13:38;;;;;;;4.53;2.65;;;8.90;96.70;;;;;;4114061;28;20050;-89
2020/12/17 09:15:40;;;;;;;2.42;1.55;;;8.90;96.80;;;;;;4115396;28;20058;-90
2020/12/17 09:17:41;;;;;;;2.70;2.40;;;9.00;96.80;;;;;;4131401;28;20054;-90
2020/12/17 09:19:43;;;;;;;3.17;1.95;;;9.00;96.70;;;;;;4106663;28;20066;-88
2020/12/17 09:21:57;;;;;;;5.38;2.88;;;9.00;96.70;;;;;;4104131;28;20424;-87
2020/12/17 09:23:59;;;;;;;7.80;2.75;;;9.00;96.90;;;;;;4100149;28;20050;-90
2020/12/17 09:26:11;;;;;;;1.73;1.35;;;9.00;96.90;;;;;;4131172;28;20597;-89
2020/12/17 09:28:20;;;;;;;3.63;1.75;;;9.10;96.90;;;;;;4115079;28;20141;-90
2020/12/17 09:30:22;;;;;;;3.90;1.60;;;9.10;96.90;;;;;;4113777;28;20062;-90
2020/12/17 09:32:23;;;;;;;4.13;1.70;;;9.20;96.70;;;;;;4103607;28;20131;-89
2020/12/17 09:34:24;;;;;;;2.67;1.83;;;9.20;96.50;;;;;;4114302;28;20057;-90
2020/12/17 09:36:26;;;;;;;3.92;2.20;;;9.30;96.70;;;;;;4128513;28;20062;-90
2020/12/17 09:38:27;;;;;;;11.00;4.32;;;9.30;96.50;;;;;;4118714;28;20090;-89
2020/12/17 09:40:29;;;;;;;6.88;2.67;;;9.40;96.50;;;;;;4118875;28;20574;-89
2020/12/17 09:42:30;;;;;;;7.72;3.70;;;9.50;96.40;;;;;;4116312;28;20043;-89
2020/12/17 09:44:35;;;;;;;2.67;1.98;;;9.50;96.20;;;;;;4105136;28;20519;-90
2020/12/17 09:46:43;;;;;;;3.85;3.25;;;9.60;96.30;;;;;;4128136;28;20074;-93
2020/12/17 09:48:45;;;;;;;3.30;2.45;;;9.50;96.20;;;;;;4142046;28;20493;-93
2020/12/17 09:50:55;;;;;;;5.53;2.20;;;9.60;95.80;;;;;;4113118;28;20570;-91
2020/12/17 09:52:56;;;;;;;1.60;1.08;;;9.60;96.00;;;;;;4142080;28;20158;-91
2020/12/17 09:54:58;;;;;;;1.08;1.00;;;9.60;96.00;;;;;;4137179;28;20058;-91
2020/12/17 09:57:06;;;;;;;4.90;2.55;;;9.70;96.00;;;;;;4104285;28;20082;-92
2020/12/17 09:59:07;;;;;;;4.20;2.17;;;9.80;96.00;;;;;;4121993;28;20046;-91
2020/12/17 10:01:22;;;;;;;3.03;2.45;;;9.90;95.60;;;;;;4137034;28;20054;-90
2020/12/17 10:03:23;;;;;;;3.03;1.90;;;9.90;95.70;;;;;;4119119;28;20129;-89
2020/12/17 10:05:24;;;;;;;4.35;3.13;;;9.80;95.50;;;;;;4122767;28;20146;-92
2020/12/17 10:07:25;;;;;;;1.60;0.80;;;9.80;95.80;;;;;;4136837;28;20137;-92
2020/12/17 10:09:27;;;;;;;1.70;1.40;;;9.90;95.80;;;;;;4117362;28;20153;-87
2020/12/17 10:11:28;;;;;;;2.63;1.60;;;10.00;95.60;;;;;;4119498;28;20055;-92
2020/12/17 10:13:30;;;;;;;1.65;1.30;;;10.00;95.90;;;;;;4128073;28;20082;-91
2020/12/17 10:15:31;;;;;;;1.63;1.52;;;10.00;96.00;;;;;;4127019;28;20518;-92
2020/12/17 10:17:33;;;;;;;7.63;2.03;;;10.10;96.20;;;;;;4121227;28;20051;-92
2020/12/17 10:19:35;;;;;;;3.33;2.22;;;10.10;96.40;;;;;;4134810;28;20082;-92
2020/12/17 10:21:36;;;;;;;11.98;2.60;;;10.10;96.30;;;;;;4135631;28;20060;-93
2020/12/17 10:23:37;;;;;;;1.42;1.17;;;10.10;96.80;;;;;;4120038;28;20086;-88
2020/12/17 10:25:38;;;;;;;2.88;1.13;;;10.20;96.80;;;;;;4138028;28;20537;-93
2020/12/17 10:27:40;;;;;;;3.22;1.52;;;10.30;96.90;;;;;;4120819;28;20043;-92
2020/12/17 10:29:41;;;;;;;1.67;1.33;;;10.30;97.10;;;;;;4120162;28;20050;-93
2020/12/17 10:31:42;;;;;;;3.50;1.17;;;10.40;97.00;;;;;;4126823;28;20089;-92
2020/12/17 10:33:43;;;;;;;3.95;2.42;;;10.50;97.10;;;;;;4095739;28;20047;-92
2020/12/17 10:35:45;;;;;;;6.10;1.58;;;10.50;97.10;;;;;;4120741;28;20065;-93
2020/12/17 10:37:46;;;;;;;2.33;1.75;;;10.60;96.80;;;;;;4135974;28;20074;-92
2020/12/17 10:39:48;;;;;;;2.42;1.27;;;10.60;96.50;;;;;;4117139;28;20071;-93
2020/12/17 10:41:49;;;;;;;2.53;1.45;;;10.60;96.90;;;;;;4123284;28;20053;-92
2020/12/17 10:43:51;;;;;;;1.85;1.50;;;10.60;96.90;;;;;;4121999;28;20061;-91
2020/12/17 10:45:52;;;;;;;2.00;1.52;;;10.70;96.30;;;;;;4130692;28;20061;-86